Terminal Aerodrome Forecast
Issued by NWS Omaha/Valley, NE

Home | Current Version | Previous Version | Text Only | Print | Product List | Glossary On
Versions: 1 2 3 4 5 6 7 8 9 10 11 12 13 14 15
000
FTUS43 KOAX 282320
TAFOFK
TAF
KOFK 282320Z 2900/2924 01007KT P6SM SCT080
     FM290200 02006KT P6SM VCTS BKN070CB
     FM290700 05004KT P6SM BKN060
     FM291600 05006KT P6SM SCT070=

USA.gov is the U.S. government's official web portal to all federal, state and local government web resources and services.